Time;durP1;ratioP1;P1;durP2;ratioP2;P2;SDS_P1;SDS_P2;PMS_P1;PMS_P2;Temp;Humidity;BMP_temperature;BMP_pressure;BME280_temperature;BME280_humidity;BME280_pressure;Samples;Min_cycle;Max_cycle;Signal;HPM_P1;HPM_P2
2022/12/09 00:00:15;;;;;;;48.50;34.40;;;;;;;;;;4967467;28;20190;-79
2022/12/09 00:02:41;;;;;;;46.30;33.53;;;;;;;;;;5000012;28;20225;-77
2022/12/09 00:05:08;;;;;;;40.40;32.30;;;;;;;;;;5012744;28;20217;-76
2022/12/09 00:07:35;;;;;;;41.37;31.13;;;;;;;;;;4999530;28;20232;-82
2022/12/09 00:10:01;;;;;;;41.97;31.77;;;;;;;;;;4993472;28;20192;-82
2022/12/09 00:12:27;;;;;;;42.27;31.20;;;;;;;;;;4977542;28;20186;-83
2022/12/09 00:14:53;;;;;;;43.40;32.43;;;;;;;;;;4994246;28;20212;-82
2022/12/09 00:17:19;;;;;;;40.43;31.13;;;;;;;;;;4993697;28;20193;-81
2022/12/09 00:19:46;;;;;;;44.83;32.27;;;;;;;;;;4994118;28;20212;-80
2022/12/09 00:22:12;;;;;;;40.77;31.40;;;;;;;;;;4993538;28;20189;-81
2022/12/09 00:24:38;;;;;;;40.50;31.70;;;;;;;;;;4993852;28;20198;-81
2022/12/09 00:27:04;;;;;;;42.47;32.20;;;;;;;;;;4993697;28;20193;-81
2022/12/09 00:29:30;;;;;;;44.70;31.03;;;;;;;;;;4993836;28;20234;-82
2022/12/09 00:31:56;;;;;;;42.40;31.57;;;;;;;;;;4993480;28;20178;-82
2022/12/09 00:34:22;;;;;;;41.47;31.57;;;;;;;;;;4993879;28;20232;-81
2022/12/09 00:36:48;;;;;;;46.27;33.23;;;;;;;;;;4993695;28;20197;-80
2022/12/09 00:39:14;;;;;;;44.57;33.23;;;;;;;;;;4993652;28;20181;-82
2022/12/09 00:41:40;;;;;;;47.07;34.27;;;;;;;;;;4993508;28;20182;-81
2022/12/09 00:44:06;;;;;;;44.43;33.07;;;;;;;;;;4993469;28;20216;-81
2022/12/09 00:46:32;;;;;;;48.97;34.60;;;;;;;;;;4993291;28;20217;-81
2022/12/09 00:48:58;;;;;;;49.50;33.93;;;;;;;;;;4993256;28;20264;-81
2022/12/09 00:51:24;;;;;;;48.87;35.73;;;;;;;;;;4993381;28;20229;-79
2022/12/09 00:53:53;;;;;;;47.37;35.90;;;;;;;;;;4993441;28;20182;-79
2022/12/09 00:56:20;;;;;;;48.07;35.60;;;;;;;;;;4996823;28;20193;-79
2022/12/09 00:58:46;;;;;;;47.17;36.27;;;;;;;;;;5008401;28;20178;-79
2022/12/09 01:01:12;;;;;;;49.83;38.43;;;;;;;;;;4992532;28;20280;-79
2022/12/09 01:03:38;;;;;;;49.27;37.47;;;;;;;;;;4996725;28;20257;-79
2022/12/09 01:06:09;;;;;;;50.93;38.67;;;;;;;;;;4999876;28;20236;-79
2022/12/09 01:08:35;;;;;;;54.03;39.83;;;;;;;;;;5015489;28;20178;-81
2022/12/09 01:11:07;;;;;;;49.80;38.43;;;;;;;;;;5016383;28;20185;-82
2022/12/09 01:13:33;;;;;;;49.43;36.97;;;;;;;;;;5014000;28;20333;-82
2022/12/09 01:15:59;;;;;;;57.50;39.03;;;;;;;;;;5001828;28;20219;-81
2022/12/09 01:18:25;;;;;;;53.23;39.80;;;;;;;;;;5011904;28;20194;-79
2022/12/09 01:20:58;;;;;;;56.40;39.07;;;;;;;;;;4994684;28;20194;-79
2022/12/09 01:23:24;;;;;;;52.50;38.93;;;;;;;;;;5007423;28;20186;-79
2022/12/09 01:25:50;;;;;;;53.10;38.57;;;;;;;;;;5013683;28;20217;-79
2022/12/09 01:28:16;;;;;;;54.33;39.03;;;;;;;;;;5016220;28;20177;-79
2022/12/09 01:30:42;;;;;;;53.30;37.37;;;;;;;;;;4999743;28;20192;-79
2022/12/09 01:33:08;;;;;;;50.87;38.00;;;;;;;;;;5004063;28;20186;-79
2022/12/09 01:35:34;;;;;;;50.30;36.27;;;;;;;;;;5029002;28;20281;-79
2022/12/09 01:38:00;;;;;;;47.67;34.53;;;;;;;;;;5013423;28;20186;-78
2022/12/09 01:40:26;;;;;;;49.77;36.07;;;;;;;;;;5015867;28;20193;-84
2022/12/09 01:42:52;;;;;;;48.83;35.00;;;;;;;;;;4999396;28;20200;-83
2022/12/09 01:45:22;;;;;;;43.33;33.10;;;;;;;;;;4999458;28;20201;-84
2022/12/09 01:47:49;;;;;;;44.70;31.97;;;;;;;;;;5015578;28;20181;-83
2022/12/09 01:50:16;;;;;;;46.30;33.07;;;;;;;;;;4999239;28;20280;-82
2022/12/09 01:52:42;;;;;;;45.80;33.93;;;;;;;;;;5015338;28;20212;-83
2022/12/09 01:55:09;;;;;;;47.40;33.23;;;;;;;;;;5015700;28;20228;-83
2022/12/09 01:57:35;;;;;;;46.27;33.43;;;;;;;;;;5015015;28;20185;-83
2022/12/09 02:00:01;;;;;;;45.13;33.57;;;;;;;;;;5016088;28;20256;-83
2022/12/09 02:02:27;;;;;;;44.03;33.03;;;;;;;;;;5006455;28;20304;-83
2022/12/09 02:04:54;;;;;;;44.63;32.93;;;;;;;;;;4990286;28;20253;-83
2022/12/09 02:07:20;;;;;;;48.53;33.60;;;;;;;;;;5004206;28;20253;-83
2022/12/09 02:09:51;;;;;;;47.33;32.43;;;;;;;;;;4986940;28;20305;-78
2022/12/09 02:12:36;;;;;;;44.30;32.87;;;;;;;;;;4991089;28;20181;-79
2022/12/09 02:15:08;;;;;;;42.73;31.83;;;;;;;;;;5001863;28;20185;-78
2022/12/09 02:17:43;;;;;;;44.33;32.77;;;;;;;;;;5006410;28;20177;-78
2022/12/09 02:20:22;;;;;;;45.30;32.03;;;;;;;;;;5004370;28;20185;-78
2022/12/09 02:23:06;;;;;;;45.63;32.43;;;;;;;;;;5003386;28;20170;-78
2022/12/09 02:25:38;;;;;;;45.20;30.70;;;;;;;;;;5002941;28;20207;-78
2022/12/09 02:28:23;;;;;;;41.60;31.13;;;;;;;;;;5014378;28;20166;-78
2022/12/09 02:30:58;;;;;;;41.77;30.70;;;;;;;;;;4998479;28;20177;-82
2022/12/09 02:33:48;;;;;;;39.07;28.77;;;;;;;;;;4998470;28;20177;-83
2022/12/09 02:36:18;;;;;;;41.10;30.07;;;;;;;;;;4971249;28;20185;-82
2022/12/09 02:38:44;;;;;;;39.20;29.80;;;;;;;;;;4996123;28;20182;-83
2022/12/09 02:41:16;;;;;;;43.03;31.10;;;;;;;;;;4984379;28;20259;-83
2022/12/09 02:43:46;;;;;;;42.37;29.87;;;;;;;;;;4984803;28;20238;-82
2022/12/09 02:46:13;;;;;;;42.43;31.27;;;;;;;;;;5014860;28;20209;-82
2022/12/09 02:48:41;;;;;;;43.73;31.33;;;;;;;;;;4996176;28;20192;-78
2022/12/09 02:51:13;;;;;;;43.73;31.23;;;;;;;;;;4994426;28;20185;-77
2022/12/09 02:53:40;;;;;;;43.13;31.43;;;;;;;;;;4990297;28;20178;-78
2022/12/09 02:56:07;;;;;;;43.87;32.07;;;;;;;;;;4990417;28;20212;-78
2022/12/09 02:58:33;;;;;;;41.73;31.63;;;;;;;;;;4989830;28;20185;-78
2022/12/09 03:00:59;;;;;;;43.67;32.17;;;;;;;;;;5005297;28;20308;-78
2022/12/09 03:03:26;;;;;;;44.13;31.80;;;;;;;;;;4989335;28;20181;-78
2022/12/09 03:05:59;;;;;;;44.43;32.23;;;;;;;;;;5002837;28;20239;-79
2022/12/09 03:08:25;;;;;;;46.37;32.33;;;;;;;;;;5014774;28;20188;-79
2022/12/09 03:10:54;;;;;;;38.77;29.57;;;;;;;;;;5005075;28;20177;-79
2022/12/09 03:13:29;;;;;;;43.53;31.20;;;;;;;;;;5004494;28;20177;-79
2022/12/09 03:16:00;;;;;;;40.07;29.70;;;;;;;;;;5003431;28;20185;-82
2022/12/09 03:18:28;;;;;;;41.30;28.73;;;;;;;;;;5014873;28;20185;-83
2022/12/09 03:20:54;;;;;;;40.17;29.30;;;;;;;;;;4997676;28;20196;-78
2022/12/09 03:23:22;;;;;;;39.00;28.77;;;;;;;;;;4997738;28;20181;-78
2022/12/09 03:25:50;;;;;;;40.57;28.80;;;;;;;;;;4997143;28;20212;-78
2022/12/09 03:28:18;;;;;;;39.97;29.33;;;;;;;;;;4997329;28;20173;-78
2022/12/09 03:30:45;;;;;;;41.07;29.93;;;;;;;;;;4996893;28;20244;-78
2022/12/09 03:33:12;;;;;;;42.47;31.40;;;;;;;;;;4986624;28;20284;-78
2022/12/09 03:35:41;;;;;;;43.23;30.17;;;;;;;;;;4995319;28;20271;-78
2022/12/09 03:38:09;;;;;;;43.57;28.57;;;;;;;;;;4977998;28;20196;-81
2022/12/09 03:40:36;;;;;;;38.90;28.50;;;;;;;;;;4977909;28;20197;-81
2022/12/09 03:43:08;;;;;;;37.97;28.00;;;;;;;;;;4979371;28;20200;-81
2022/12/09 03:45:34;;;;;;;35.67;26.33;;;;;;;;;;4977489;28;20221;-81
2022/12/09 03:48:01;;;;;;;33.30;25.17;;;;;;;;;;4971544;28;20197;-81
2022/12/09 03:50:29;;;;;;;32.70;24.57;;;;;;;;;;4980667;28;20194;-81
2022/12/09 03:53:02;;;;;;;33.07;24.57;;;;;;;;;;4979707;28;20232;-81
2022/12/09 03:55:32;;;;;;;29.30;21.57;;;;;;;;;;4995326;28;20193;-78
2022/12/09 03:57:59;;;;;;;30.47;22.70;;;;;;;;;;5013156;28;20178;-78
2022/12/09 04:00:26;;;;;;;29.27;22.07;;;;;;;;;;4987103;28;20228;-78
2022/12/09 04:02:52;;;;;;;30.80;22.93;;;;;;;;;;4983441;28;20189;-78
2022/12/09 04:05:18;;;;;;;31.70;23.20;;;;;;;;;;4976589;28;20229;-78
2022/12/09 04:07:44;;;;;;;30.67;22.50;;;;;;;;;;4976157;28;20205;-78
2022/12/09 04:10:10;;;;;;;32.57;23.93;;;;;;;;;;4976663;28;20193;-78
2022/12/09 04:12:36;;;;;;;34.80;24.83;;;;;;;;;;4976924;28;20208;-78
2022/12/09 04:15:02;;;;;;;34.33;25.40;;;;;;;;;;5005475;28;20235;-78
2022/12/09 04:17:28;;;;;;;35.30;25.37;;;;;;;;;;4961371;28;20260;-78
2022/12/09 04:19:54;;;;;;;36.23;25.57;;;;;;;;;;4976994;28;20249;-78
2022/12/09 04:22:20;;;;;;;35.90;24.93;;;;;;;;;;4976319;28;20189;-78
2022/12/09 04:24:46;;;;;;;34.57;25.07;;;;;;;;;;4975341;28;20196;-78
2022/12/09 04:27:12;;;;;;;36.27;25.77;;;;;;;;;;4976431;28;20193;-81
2022/12/09 04:29:38;;;;;;;33.30;25.47;;;;;;;;;;4975088;28;20193;-81
2022/12/09 04:32:04;;;;;;;35.13;25.70;;;;;;;;;;4976511;28;20189;-81
2022/12/09 04:34:31;;;;;;;36.53;24.90;;;;;;;;;;4978106;28;20236;-81
2022/12/09 04:36:57;;;;;;;35.67;25.73;;;;;;;;;;4996795;28;20185;-81
2022/12/09 04:39:23;;;;;;;32.33;24.20;;;;;;;;;;4997252;28;20437;-81
2022/12/09 04:41:49;;;;;;;33.57;24.80;;;;;;;;;;4970596;28;20185;-81
2022/12/09 04:44:15;;;;;;;31.50;23.63;;;;;;;;;;4990413;28;20196;-83
2022/12/09 04:46:42;;;;;;;32.10;23.77;;;;;;;;;;4978978;28;20205;-83
2022/12/09 04:49:08;;;;;;;32.20;23.53;;;;;;;;;;5006842;28;20243;-83
2022/12/09 04:51:34;;;;;;;32.73;23.23;;;;;;;;;;4990203;28;20217;-83
2022/12/09 04:54:00;;;;;;;29.80;22.97;;;;;;;;;;4990344;28;20196;-83
2022/12/09 04:56:26;;;;;;;29.13;22.17;;;;;;;;;;4986285;28;20196;-83
2022/12/09 04:58:52;;;;;;;30.70;22.13;;;;;;;;;;4991591;28;20268;-83
2022/12/09 05:01:19;;;;;;;30.90;22.83;;;;;;;;;;4984031;28;20229;-81
2022/12/09 05:03:52;;;;;;;32.60;22.57;;;;;;;;;;5014955;28;20185;-81
2022/12/09 05:06:18;;;;;;;31.53;22.13;;;;;;;;;;5012610;28;20212;-81
2022/12/09 05:08:44;;;;;;;31.23;22.77;;;;;;;;;;5014708;28;20235;-81
2022/12/09 05:11:12;;;;;;;32.50;22.30;;;;;;;;;;4996413;28;20217;-81
2022/12/09 05:13:38;;;;;;;29.27;22.30;;;;;;;;;;5015889;28;20182;-81
2022/12/09 05:16:12;;;;;;;30.83;23.30;;;;;;;;;;5015338;28;20216;-81
2022/12/09 05:18:38;;;;;;;29.60;22.90;;;;;;;;;;5013574;28;20182;-83
2022/12/09 05:21:05;;;;;;;32.10;23.27;;;;;;;;;;5005025;28;20212;-83
2022/12/09 05:23:31;;;;;;;31.97;22.97;;;;;;;;;;4995926;28;20316;-83
2022/12/09 05:25:57;;;;;;;31.57;23.70;;;;;;;;;;5004356;28;20295;-83
2022/12/09 05:28:23;;;;;;;33.43;23.27;;;;;;;;;;4996039;28;20194;-83
2022/12/09 05:30:49;;;;;;;31.50;23.43;;;;;;;;;;5008546;28;20185;-84
2022/12/09 05:33:15;;;;;;;34.80;23.67;;;;;;;;;;4995444;28;20264;-83
2022/12/09 05:35:43;;;;;;;32.70;23.50;;;;;;;;;;4993556;28;20214;-78
2022/12/09 05:38:09;;;;;;;33.27;24.43;;;;;;;;;;4999734;28;20181;-78
2022/12/09 05:40:36;;;;;;;34.75;27.42;;;;;;;;;;5000912;28;20440;-78
2022/12/09 05:43:02;;;;;;;32.27;25.03;;;;;;;;;;4999482;28;20182;-79
2022/12/09 05:45:28;;;;;;;31.67;23.80;;;;;;;;;;5020620;28;20323;-78
2022/12/09 05:47:54;;;;;;;31.50;23.43;;;;;;;;;;5007068;28;20181;-79
2022/12/09 05:50:20;;;;;;;32.17;23.27;;;;;;;;;;4996113;28;20186;-82
2022/12/09 05:52:46;;;;;;;32.80;24.17;;;;;;;;;;4997522;28;20185;-82
2022/12/09 05:55:12;;;;;;;32.67;23.77;;;;;;;;;;4999294;28;20280;-82
2022/12/09 05:57:38;;;;;;;33.43;24.37;;;;;;;;;;4999338;28;20182;-82
2022/12/09 06:00:05;;;;;;;31.70;23.93;;;;;;;;;;4997879;28;20236;-82
2022/12/09 06:02:31;;;;;;;33.07;23.37;;;;;;;;;;5015111;28;20285;-82
2022/12/09 06:04:57;;;;;;;32.90;22.77;;;;;;;;;;4999222;28;20301;-82
2022/12/09 06:07:23;;;;;;;31.47;23.30;;;;;;;;;;4999670;28;20181;-83
2022/12/09 06:09:49;;;;;;;31.30;23.03;;;;;;;;;;4999674;28;20177;-84
2022/12/09 06:12:15;;;;;;;31.57;22.40;;;;;;;;;;5015589;28;20260;-84
2022/12/09 06:14:41;;;;;;;30.47;22.80;;;;;;;;;;5015805;28;20185;-84
2022/12/09 06:17:07;;;;;;;33.87;22.70;;;;;;;;;;4999273;28;20187;-84
2022/12/09 06:19:33;;;;;;;30.40;22.20;;;;;;;;;;4999125;28;20181;-83
2022/12/09 06:21:59;;;;;;;32.67;22.13;;;;;;;;;;4999535;28;20280;-84
2022/12/09 06:24:25;;;;;;;30.97;22.00;;;;;;;;;;5012847;28;20177;-82
2022/12/09 06:26:54;;;;;;;34.50;22.90;;;;;;;;;;5013490;28;20248;-82
2022/12/09 06:29:20;;;;;;;29.93;22.00;;;;;;;;;;4998810;28;20197;-79
2022/12/09 06:31:46;;;;;;;31.85;22.80;;;;;;;;;;5015037;28;20415;-79
2022/12/09 06:34:12;;;;;;;33.13;22.70;;;;;;;;;;5015062;28;20263;-82
2022/12/09 06:36:38;;;;;;;34.43;22.60;;;;;;;;;;4995283;28;20185;-78
2022/12/09 06:39:05;;;;;;;30.63;21.73;;;;;;;;;;5014011;28;20189;-78
2022/12/09 06:41:31;;;;;;;30.77;22.20;;;;;;;;;;5016147;28;20177;-79
2022/12/09 06:43:57;;;;;;;31.13;21.90;;;;;;;;;;5014664;28;20173;-79
2022/12/09 06:46:24;;;;;;;31.10;21.40;;;;;;;;;;4994862;28;20209;-79
2022/12/09 06:48:50;;;;;;;31.27;22.43;;;;;;;;;;5001328;28;20252;-79
2022/12/09 06:51:17;;;;;;;31.77;21.90;;;;;;;;;;4979455;28;20206;-79
2022/12/09 06:53:43;;;;;;;31.27;21.70;;;;;;;;;;4980115;28;20216;-79
2022/12/09 06:56:10;;;;;;;39.03;27.80;;;;;;;;;;4994452;28;20497;-79
2022/12/09 06:58:37;;;;;;;35.37;23.57;;;;;;;;;;5006051;28;20189;-78
2022/12/09 07:01:07;;;;;;;30.73;21.23;;;;;;;;;;5012039;28;20279;-78
2022/12/09 07:03:33;;;;;;;32.43;21.47;;;;;;;;;;4999114;28;20272;-78
2022/12/09 07:06:00;;;;;;;31.33;22.03;;;;;;;;;;5002499;28;20277;-79
2022/12/09 07:08:26;;;;;;;33.17;22.67;;;;;;;;;;4994718;28;20189;-78
2022/12/09 07:10:52;;;;;;;30.80;22.70;;;;;;;;;;5004439;28;20281;-79
2022/12/09 07:13:18;;;;;;;36.30;23.53;;;;;;;;;;4994195;28;20337;-78
2022/12/09 07:15:44;;;;;;;34.63;23.40;;;;;;;;;;4978565;28;20213;-79
2022/12/09 07:18:10;;;;;;;34.77;23.33;;;;;;;;;;4978630;28;20185;-79
2022/12/09 07:20:36;;;;;;;33.60;24.40;;;;;;;;;;4978932;28;20181;-79
2022/12/09 07:23:02;;;;;;;38.63;24.03;;;;;;;;;;4995530;28;20178;-79
2022/12/09 07:25:28;;;;;;;34.77;23.57;;;;;;;;;;4997847;28;20217;-79
2022/12/09 07:27:54;;;;;;;36.87;23.87;;;;;;;;;;4994004;28;20189;-79
2022/12/09 07:30:20;;;;;;;34.60;22.37;;;;;;;;;;5005047;28;20189;-78
2022/12/09 07:32:46;;;;;;;34.63;23.50;;;;;;;;;;4994540;28;20182;-78
2022/12/09 07:35:12;;;;;;;36.20;24.00;;;;;;;;;;4994297;28;20196;-78
2022/12/09 07:37:38;;;;;;;33.10;23.00;;;;;;;;;;4984050;28;20189;-78
2022/12/09 07:40:04;;;;;;;37.40;23.93;;;;;;;;;;4998992;28;20196;-78
2022/12/09 07:42:30;;;;;;;34.10;23.00;;;;;;;;;;5014542;28;20189;-78
2022/12/09 07:44:56;;;;;;;34.60;23.43;;;;;;;;;;5013952;28;20181;-78
2022/12/09 07:47:22;;;;;;;34.33;23.37;;;;;;;;;;4994396;28;20197;-79
2022/12/09 07:49:48;;;;;;;33.90;23.53;;;;;;;;;;4977515;28;20178;-79
2022/12/09 07:52:14;;;;;;;34.83;22.77;;;;;;;;;;4977963;28;20182;-79
2022/12/09 07:54:40;;;;;;;35.97;23.73;;;;;;;;;;4994292;28;20183;-79
2022/12/09 07:57:06;;;;;;;38.00;23.80;;;;;;;;;;4994178;28;20181;-79
2022/12/09 07:59:33;;;;;;;37.90;23.67;;;;;;;;;;5001985;28;20181;-79
2022/12/09 08:01:59;;;;;;;37.17;23.17;;;;;;;;;;5012443;28;20221;-79
2022/12/09 08:04:25;;;;;;;34.77;23.47;;;;;;;;;;5009259;28;20252;-82
2022/12/09 08:06:51;;;;;;;38.37;24.83;;;;;;;;;;5000208;28;20307;-82
2022/12/09 08:09:17;;;;;;;38.73;23.83;;;;;;;;;;5033185;28;20173;-82
2022/12/09 08:11:43;;;;;;;39.60;25.03;;;;;;;;;;5032459;28;20173;-82
2022/12/09 08:14:10;;;;;;;39.57;24.73;;;;;;;;;;5016752;28;20279;-82
2022/12/09 08:16:37;;;;;;;35.13;24.00;;;;;;;;;;5020774;28;20184;-81
2022/12/09 08:19:03;;;;;;;37.23;24.93;;;;;;;;;;4993640;28;20193;-82
2022/12/09 08:21:30;;;;;;;40.00;26.50;;;;;;;;;;4993608;28;20252;-79
2022/12/09 08:23:57;;;;;;;41.13;27.23;;;;;;;;;;4997376;28;20208;-79
2022/12/09 08:26:24;;;;;;;43.87;28.00;;;;;;;;;;5009546;28;20205;-79
2022/12/09 08:28:50;;;;;;;40.13;28.27;;;;;;;;;;4993901;28;20182;-79
2022/12/09 08:31:17;;;;;;;42.07;29.27;;;;;;;;;;4989018;28;20227;-79
2022/12/09 08:33:44;;;;;;;42.20;28.13;;;;;;;;;;5012477;28;20191;-79
2022/12/09 08:36:11;;;;;;;39.20;28.40;;;;;;;;;;5003971;28;20189;-79
2022/12/09 08:38:37;;;;;;;39.50;28.17;;;;;;;;;;5003957;28;20224;-83
2022/12/09 08:41:17;;;;;;;43.50;28.50;;;;;;;;;;4996672;28;20221;-84
2022/12/09 08:43:43;;;;;;;41.37;28.37;;;;;;;;;;5012878;28;20186;-84
2022/12/09 08:46:10;;;;;;;39.43;26.63;;;;;;;;;;5014014;28;20205;-83
2022/12/09 08:48:36;;;;;;;37.80;26.70;;;;;;;;;;5012885;28;20192;-83
2022/12/09 08:51:03;;;;;;;38.00;25.97;;;;;;;;;;5010750;28;20170;-83
2022/12/09 08:53:29;;;;;;;44.67;27.97;;;;;;;;;;5013380;28;20205;-79
2022/12/09 08:55:55;;;;;;;37.40;26.03;;;;;;;;;;5012969;28;20181;-77
2022/12/09 08:58:21;;;;;;;43.33;27.23;;;;;;;;;;5012899;28;20181;-77
2022/12/09 09:00:47;;;;;;;42.27;28.37;;;;;;;;;;4996304;28;20189;-77
2022/12/09 09:03:13;;;;;;;45.93;29.07;;;;;;;;;;4980572;28;20197;-77
2022/12/09 09:05:39;;;;;;;47.30;30.13;;;;;;;;;;5013900;28;20205;-77
2022/12/09 09:08:05;;;;;;;51.97;32.30;;;;;;;;;;4980092;28;20181;-77
2022/12/09 09:10:31;;;;;;;57.80;34.03;;;;;;;;;;4996645;28;20211;-81
2022/12/09 09:12:57;;;;;;;55.40;33.20;;;;;;;;;;4996622;28;20224;-81
2022/12/09 09:15:23;;;;;;;52.83;32.73;;;;;;;;;;4996423;28;20211;-80
2022/12/09 09:17:52;;;;;;;56.70;32.53;;;;;;;;;;4980669;28;20235;-81
2022/12/09 09:20:18;;;;;;;51.10;31.90;;;;;;;;;;4996354;28;20184;-81
2022/12/09 09:22:44;;;;;;;50.77;31.77;;;;;;;;;;4979415;28;20193;-81
2022/12/09 09:25:10;;;;;;;48.53;31.37;;;;;;;;;;4964476;28;20238;-81
2022/12/09 09:27:36;;;;;;;48.03;30.67;;;;;;;;;;4996885;28;20178;-77
2022/12/09 09:30:03;;;;;;;36.77;25.10;;;;;;;;;;4997876;28;20208;-76
2022/12/09 09:32:31;;;;;;;38.63;24.47;;;;;;;;;;4997881;28;20170;-77
2022/12/09 09:34:57;;;;;;;33.70;20.23;;;;;;;;;;4997393;28;20296;-77
2022/12/09 09:37:23;;;;;;;33.20;22.17;;;;;;;;;;4997646;28;20178;-77
2022/12/09 09:39:49;;;;;;;26.33;18.33;;;;;;;;;;4964473;28;20236;-77
2022/12/09 09:42:30;;;;;;;31.60;20.63;;;;;;;;;;4980577;28;20210;-77
2022/12/09 09:44:57;;;;;;;25.27;16.80;;;;;;;;;;4996680;28;20181;-78
2022/12/09 09:48:01;;;;;;;23.70;16.63;;;;;;;;;;4980112;28;20213;-78
2022/12/09 09:50:42;;;;;;;27.77;17.33;;;;;;;;;;4937572;29;20219;-78
2022/12/09 09:53:15;;;;;;;30.13;18.53;;;;;;;;;;4921757;29;20227;-78
2022/12/09 09:55:50;;;;;;;26.77;17.80;;;;;;;;;;4958106;28;20186;-78
2022/12/09 09:58:18;;;;;;;32.23;20.13;;;;;;;;;;4980421;28;20181;-78
2022/12/09 10:01:13;;;;;;;32.40;19.47;;;;;;;;;;4979821;28;20178;-78
2022/12/09 10:04:02;;;;;;;30.50;20.23;;;;;;;;;;4964016;28;20208;-78
2022/12/09 10:06:35;;;;;;;31.43;20.57;;;;;;;;;;4979724;28;20244;-78
2022/12/09 10:09:20;;;;;;;34.77;22.70;;;;;;;;;;4979646;28;20225;-78
2022/12/09 10:11:46;;;;;;;33.90;22.20;;;;;;;;;;4979618;28;20178;-78
2022/12/09 10:14:21;;;;;;;32.70;21.90;;;;;;;;;;4979894;28;20174;-78
2022/12/09 10:17:14;;;;;;;36.50;22.93;;;;;;;;;;4996910;28;20201;-78
2022/12/09 10:19:43;;;;;;;35.07;23.07;;;;;;;;;;4978486;28;20204;-78
2022/12/09 10:22:11;;;;;;;34.93;22.50;;;;;;;;;;4979474;28;20189;-77
2022/12/09 10:24:40;;;;;;;36.03;22.87;;;;;;;;;;4979499;28;20209;-78
2022/12/09 10:27:15;;;;;;;34.17;21.80;;;;;;;;;;4979722;28;20249;-78
2022/12/09 10:29:41;;;;;;;33.87;22.90;;;;;;;;;;4978929;28;20178;-78
2022/12/09 10:32:13;;;;;;;31.53;22.60;;;;;;;;;;4979115;28;20188;-78
2022/12/09 10:34:39;;;;;;;34.77;21.73;;;;;;;;;;4978339;28;20178;-81
2022/12/09 10:37:05;;;;;;;32.03;22.10;;;;;;;;;;4978816;28;20216;-81
2022/12/09 10:39:33;;;;;;;33.00;22.57;;;;;;;;;;4978940;28;20186;-81
2022/12/09 10:44:47;;;;;;;33.17;22.03;;;;;;;;;;4996298;28;20342;-81
2022/12/09 10:47:27;;;;;;;28.93;20.33;;;;;;;;;;4991880;28;20237;-81
2022/12/09 10:49:54;;;;;;;35.67;22.80;;;;;;;;;;4994804;28;20185;-81
2022/12/09 10:52:21;;;;;;;37.23;22.57;;;;;;;;;;4994909;28;20269;-80
2022/12/09 10:54:47;;;;;;;38.07;23.03;;;;;;;;;;4995987;28;20174;-81
2022/12/09 10:57:14;;;;;;;31.60;21.77;;;;;;;;;;4978659;28;20276;-81
2022/12/09 10:59:42;;;;;;;34.17;22.00;;;;;;;;;;4994777;28;20180;-77
2022/12/09 11:02:10;;;;;;;32.07;21.03;;;;;;;;;;5004068;28;20283;-77
2022/12/09 11:04:40;;;;;;;31.13;21.70;;;;;;;;;;5013793;28;20193;-77
2022/12/09 11:07:09;;;;;;;34.53;22.63;;;;;;;;;;5014535;28;20727;-82
2022/12/09 11:09:37;;;;;;;33.70;21.10;;;;;;;;;;5013031;28;20207;-82
2022/12/09 11:12:04;;;;;;;35.33;22.63;;;;;;;;;;5015268;28;20170;-82
2022/12/09 11:14:34;;;;;;;34.77;21.10;;;;;;;;;;5013030;28;20182;-82
2022/12/09 11:17:12;;;;;;;33.70;21.80;;;;;;;;;;5028759;23;20733;-79
2022/12/09 11:19:38;;;;;;;34.00;21.47;;;;;;;;;;5013234;28;20190;-79
2022/12/09 11:22:22;;;;;;;32.13;21.03;;;;;;;;;;4978814;28;20273;-79
2022/12/09 11:24:48;;;;;;;31.53;20.13;;;;;;;;;;5010158;28;20185;-79
2022/12/09 11:27:30;;;;;;;32.97;21.90;;;;;;;;;;4961615;28;20213;-79
2022/12/09 11:30:19;;;;;;;36.03;21.87;;;;;;;;;;4997818;28;20182;-80
2022/12/09 11:33:04;;;;;;;37.90;22.37;;;;;;;;;;5000392;28;20257;-79
2022/12/09 11:35:32;;;;;;;33.20;21.30;;;;;;;;;;5010452;28;20216;-80
2022/12/09 11:37:59;;;;;;;31.37;20.43;;;;;;;;;;5010239;28;20216;-80
2022/12/09 11:40:27;;;;;;;31.40;19.83;;;;;;;;;;5010443;28;20182;-79
2022/12/09 11:42:54;;;;;;;30.77;20.03;;;;;;;;;;4995235;28;20182;-79
2022/12/09 11:45:28;;;;;;;31.70;20.07;;;;;;;;;;4997417;28;20249;-79
2022/12/09 11:48:01;;;;;;;30.37;19.73;;;;;;;;;;5004969;28;20227;-79
2022/12/09 11:50:30;;;;;;;28.63;18.70;;;;;;;;;;4994836;28;20216;-79
2022/12/09 11:53:06;;;;;;;31.23;18.20;;;;;;;;;;5010744;28;20205;-79
2022/12/09 11:55:34;;;;;;;28.37;18.23;;;;;;;;;;5010865;28;20184;-79
2022/12/09 11:58:04;;;;;;;28.50;18.60;;;;;;;;;;5010653;28;20269;-79
2022/12/09 12:00:35;;;;;;;28.10;18.13;;;;;;;;;;5011155;28;20193;-79
2022/12/09 12:03:11;;;;;;;29.30;18.63;;;;;;;;;;5010628;28;20181;-79
2022/12/09 12:05:44;;;;;;;27.47;18.63;;;;;;;;;;4995077;28;20264;-79
2022/12/09 12:08:13;;;;;;;28.47;17.80;;;;;;;;;;4994089;28;20186;-79
2022/12/09 12:10:42;;;;;;;27.23;16.47;;;;;;;;;;4994160;28;20201;-79
2022/12/09 12:13:27;;;;;;;27.50;17.93;;;;;;;;;;4994215;28;20178;-79
2022/12/09 12:15:59;;;;;;;27.33;18.03;;;;;;;;;;4993696;28;20275;-81
2022/12/09 12:18:25;;;;;;;26.37;18.23;;;;;;;;;;4993847;28;20194;-81
2022/12/09 12:21:07;;;;;;;27.60;18.10;;;;;;;;;;4994315;28;20178;-81
2022/12/09 12:23:36;;;;;;;27.03;18.20;;;;;;;;;;4993829;28;20178;-81
2022/12/09 12:26:18;;;;;;;26.43;17.97;;;;;;;;;;4993745;28;20205;-81
2022/12/09 12:28:44;;;;;;;24.00;16.67;;;;;;;;;;4994962;28;20214;-81
2022/12/09 12:31:24;;;;;;;27.17;18.30;;;;;;;;;;4994309;28;20178;-80
2022/12/09 12:33:50;;;;;;;30.53;17.83;;;;;;;;;;4993960;28;20190;-80
2022/12/09 12:36:22;;;;;;;26.53;16.47;;;;;;;;;;5000245;28;20190;-80
2022/12/09 12:39:04;;;;;;;29.73;18.00;;;;;;;;;;4983056;28;20200;-80
2022/12/09 12:41:41;;;;;;;21.07;14.93;;;;;;;;;;5013268;28;20184;-80
2022/12/09 12:47:17;;;;;;;34.90;23.00;;;;;;;;;;5009702;28;20221;-79
2022/12/09 12:50:01;;;;;;;25.87;17.20;;;;;;;;;;4977400;28;20244;-79
2022/12/09 12:52:34;;;;;;;25.37;18.47;;;;;;;;;;4993753;28;20182;-79
2022/12/09 12:55:18;;;;;;;24.47;17.10;;;;;;;;;;4993439;28;20190;-79
2022/12/09 12:57:44;;;;;;;25.90;16.93;;;;;;;;;;5009353;28;20188;-79
2022/12/09 13:00:24;;;;;;;26.13;17.77;;;;;;;;;;4997705;28;20182;-79
2022/12/09 13:03:13;;;;;;;23.03;15.23;;;;;;;;;;4997487;28;20201;-79
2022/12/09 13:05:41;;;;;;;26.23;17.63;;;;;;;;;;5010549;28;20205;-79
2022/12/09 13:08:18;;;;;;;24.67;17.27;;;;;;;;;;5014085;28;20193;-79
2022/12/09 13:10:49;;;;;;;26.07;17.53;;;;;;;;;;5014087;28;20181;-79
2022/12/09 13:13:15;;;;;;;24.83;17.07;;;;;;;;;;4998235;28;20236;-79
2022/12/09 13:15:50;;;;;;;23.83;16.67;;;;;;;;;;4998107;28;20225;-79
2022/12/09 13:18:22;;;;;;;27.13;18.07;;;;;;;;;;4998214;28;20173;-79
2022/12/09 13:20:51;;;;;;;24.83;18.07;;;;;;;;;;4998329;28;20224;-81
2022/12/09 13:23:22;;;;;;;28.00;19.53;;;;;;;;;;4998196;28;20205;-81
2022/12/09 13:25:48;;;;;;;27.07;18.20;;;;;;;;;;5013255;28;20209;-81
2022/12/09 13:28:21;;;;;;;24.73;17.50;;;;;;;;;;4998054;28;20240;-81
2022/12/09 13:30:54;;;;;;;27.27;17.97;;;;;;;;;;4997938;28;20170;-82
2022/12/09 13:33:32;;;;;;;24.83;18.03;;;;;;;;;;4997992;28;20175;-81
2022/12/09 13:36:13;;;;;;;25.93;16.97;;;;;;;;;;4997869;28;20181;-82
2022/12/09 13:38:41;;;;;;;26.30;17.60;;;;;;;;;;5013402;28;20201;-80
2022/12/09 13:41:25;;;;;;;25.90;16.97;;;;;;;;;;5013076;28;20201;-80
2022/12/09 13:43:52;;;;;;;22.63;16.17;;;;;;;;;;5013014;28;20216;-80
2022/12/09 13:46:22;;;;;;;23.50;16.00;;;;;;;;;;5013279;28;20308;-79
2022/12/09 13:48:49;;;;;;;22.27;15.20;;;;;;;;;;5012979;28;20178;-81
2022/12/09 13:51:16;;;;;;;26.07;16.90;;;;;;;;;;4996678;28;20190;-81
2022/12/09 13:53:46;;;;;;;23.80;16.27;;;;;;;;;;5012899;28;20249;-79
2022/12/09 13:56:15;;;;;;;27.23;17.00;;;;;;;;;;5012390;28;20192;-79
2022/12/09 13:58:41;;;;;;;23.10;17.03;;;;;;;;;;5012544;28;20185;-79
2022/12/09 14:01:10;;;;;;;23.80;16.27;;;;;;;;;;4994342;28;20328;-79
2022/12/09 14:03:45;;;;;;;25.77;16.90;;;;;;;;;;4999763;28;20193;-79
2022/12/09 14:06:22;;;;;;;22.77;15.90;;;;;;;;;;5013847;28;20216;-79
2022/12/09 14:08:51;;;;;;;24.53;16.67;;;;;;;;;;4999268;28;20203;-79
2022/12/09 14:11:45;;;;;;;24.47;16.07;;;;;;;;;;4997862;28;20181;-79
2022/12/09 14:14:24;;;;;;;23.03;16.00;;;;;;;;;;4992216;28;20205;-79
2022/12/09 14:16:50;;;;;;;23.03;15.90;;;;;;;;;;5016749;28;20229;-80
2022/12/09 14:19:26;;;;;;;23.43;16.07;;;;;;;;;;5016455;28;20260;-80
2022/12/09 14:22:16;;;;;;;24.27;16.73;;;;;;;;;;5002379;28;20215;-80
2022/12/09 14:24:48;;;;;;;23.13;14.77;;;;;;;;;;5006514;28;20186;-80
2022/12/09 14:27:21;;;;;;;23.77;17.00;;;;;;;;;;4988886;28;20213;-79
2022/12/09 14:29:49;;;;;;;21.17;15.03;;;;;;;;;;4998864;28;20268;-79
2022/12/09 14:32:36;;;;;;;21.70;15.57;;;;;;;;;;4992099;28;20277;-79